sensor_id;sensor_type;location;lat;lon;timestamp;P1;durP1;ratioP1;P2;durP2;ratioP2
37459;SDS011;23318;50.966;5.284;2022-10-31T00:02:22;38.78;;;18.48;;
37459;SDS011;23318;50.966;5.284;2022-10-31T00:04:47;27.85;;;17.33;;
37459;SDS011;23318;50.966;5.284;2022-10-31T00:07:13;32.70;;;17.55;;
37459;SDS011;23318;50.966;5.284;2022-10-31T00:09:38;32.40;;;17.88;;
37459;SDS011;23318;50.966;5.284;2022-10-31T00:12:04;31.13;;;17.25;;
37459;SDS011;23318;50.966;5.284;2022-10-31T00:14:30;31.67;;;18.50;;
37459;SDS011;23318;50.966;5.284;2022-10-31T00:16:55;29.52;;;18.23;;
37459;SDS011;23318;50.966;5.284;2022-10-31T00:19:21;35.53;;;17.38;;
37459;SDS011;23318;50.966;5.284;2022-10-31T00:21:47;33.60;;;17.95;;
37459;SDS011;23318;50.966;5.284;2022-10-31T00:24:12;41.25;;;17.95;;
37459;SDS011;23318;50.966;5.284;2022-10-31T00:26:38;37.47;;;18.90;;
37459;SDS011;23318;50.966;5.284;2022-10-31T00:29:03;32.03;;;16.83;;
37459;SDS011;23318;50.966;5.284;2022-10-31T00:31:29;41.95;;;19.67;;
37459;SDS011;23318;50.966;5.284;2022-10-31T00:33:55;41.25;;;18.65;;
37459;SDS011;23318;50.966;5.284;2022-10-31T00:36:22;32.80;;;18.10;;
37459;SDS011;23318;50.966;5.284;2022-10-31T00:38:47;31.40;;;16.92;;
37459;SDS011;23318;50.966;5.284;2022-10-31T00:41:14;33.33;;;16.58;;
37459;SDS011;23318;50.966;5.284;2022-10-31T00:43:42;33.22;;;17.73;;
37459;SDS011;23318;50.966;5.284;2022-10-31T00:46:08;28.73;;;16.05;;
37459;SDS011;23318;50.966;5.284;2022-10-31T00:48:35;32.97;;;17.10;;
37459;SDS011;23318;50.966;5.284;2022-10-31T00:51:00;30.08;;;17.17;;
37459;SDS011;23318;50.966;5.284;2022-10-31T00:53:26;31.23;;;16.88;;
37459;SDS011;23318;50.966;5.284;2022-10-31T00:55:52;31.00;;;18.27;;
37459;SDS011;23318;50.966;5.284;2022-10-31T00:58:17;36.58;;;17.17;;
37459;SDS011;23318;50.966;5.284;2022-10-31T01:00:43;32.50;;;17.20;;
37459;SDS011;23318;50.966;5.284;2022-10-31T01:03:09;32.55;;;18.35;;
37459;SDS011;23318;50.966;5.284;2022-10-31T01:05:34;47.78;;;22.73;;
37459;SDS011;23318;50.966;5.284;2022-10-31T01:08:00;40.28;;;19.48;;
37459;SDS011;23318;50.966;5.284;2022-10-31T01:10:25;31.52;;;20.48;;
37459;SDS011;23318;50.966;5.284;2022-10-31T01:12:51;40.08;;;20.95;;
37459;SDS011;23318;50.966;5.284;2022-10-31T01:15:18;41.88;;;20.70;;
37459;SDS011;23318;50.966;5.284;2022-10-31T01:17:45;37.90;;;20.83;;
37459;SDS011;23318;50.966;5.284;2022-10-31T01:20:12;44.67;;;23.25;;
37459;SDS011;23318;50.966;5.284;2022-10-31T01:22:39;42.90;;;23.00;;
37459;SDS011;23318;50.966;5.284;2022-10-31T01:25:05;40.42;;;22.83;;
37459;SDS011;23318;50.966;5.284;2022-10-31T01:27:31;38.80;;;20.52;;
37459;SDS011;23318;50.966;5.284;2022-10-31T01:29:57;42.22;;;22.55;;
37459;SDS011;23318;50.966;5.284;2022-10-31T01:32:23;35.67;;;20.50;;
37459;SDS011;23318;50.966;5.284;2022-10-31T01:34:49;36.45;;;21.50;;
37459;SDS011;23318;50.966;5.284;2022-10-31T01:37:15;42.13;;;25.27;;
37459;SDS011;23318;50.966;5.284;2022-10-31T01:39:41;57.42;;;26.95;;
37459;SDS011;23318;50.966;5.284;2022-10-31T01:42:06;42.33;;;24.80;;
37459;SDS011;23318;50.966;5.284;2022-10-31T01:49:34;36.45;;;20.10;;
37459;SDS011;23318;50.966;5.284;2022-10-31T01:52:28;38.33;;;22.10;;
37459;SDS011;23318;50.966;5.284;2022-10-31T01:54:59;38.13;;;20.08;;
37459;SDS011;23318;50.966;5.284;2022-10-31T01:57:28;42.72;;;21.65;;
37459;SDS011;23318;50.966;5.284;2022-10-31T01:59:57;42.88;;;21.27;;
37459;SDS011;23318;50.966;5.284;2022-10-31T02:02:26;35.78;;;19.75;;
37459;SDS011;23318;50.966;5.284;2022-10-31T02:04:55;29.75;;;19.17;;
37459;SDS011;23318;50.966;5.284;2022-10-31T02:07:25;35.38;;;19.00;;
37459;SDS011;23318;50.966;5.284;2022-10-31T02:09:55;32.05;;;17.92;;
37459;SDS011;23318;50.966;5.284;2022-10-31T02:12:22;31.05;;;18.45;;
37459;SDS011;23318;50.966;5.284;2022-10-31T02:14:49;30.27;;;17.58;;
37459;SDS011;23318;50.966;5.284;2022-10-31T02:17:15;32.30;;;18.27;;
37459;SDS011;23318;50.966;5.284;2022-10-31T02:19:52;32.65;;;17.65;;
37459;SDS011;23318;50.966;5.284;2022-10-31T02:41:37;26.55;;;15.30;;
37459;SDS011;23318;50.966;5.284;2022-10-31T02:46:53;40.17;;;17.85;;
37459;SDS011;23318;50.966;5.284;2022-10-31T02:49:42;32.47;;;18.30;;
37459;SDS011;23318;50.966;5.284;2022-10-31T02:52:25;31.42;;;18.40;;
37459;SDS011;23318;50.966;5.284;2022-10-31T02:54:52;32.60;;;16.58;;
37459;SDS011;23318;50.966;5.284;2022-10-31T02:57:25;37.65;;;18.02;;
37459;SDS011;23318;50.966;5.284;2022-10-31T03:00:03;26.80;;;17.38;;
37459;SDS011;23318;50.966;5.284;2022-10-31T03:02:50;35.70;;;18.58;;
37459;SDS011;23318;50.966;5.284;2022-10-31T03:10:55;38.92;;;18.35;;
37459;SDS011;23318;50.966;5.284;2022-10-31T03:16:09;34.65;;;20.02;;
37459;SDS011;23318;50.966;5.284;2022-10-31T03:18:46;36.22;;;19.48;;
37459;SDS011;23318;50.966;5.284;2022-10-31T03:21:21;37.25;;;19.58;;
37459;SDS011;23318;50.966;5.284;2022-10-31T03:23:53;37.47;;;19.13;;
37459;SDS011;23318;50.966;5.284;2022-10-31T03:26:19;36.22;;;19.40;;
37459;SDS011;23318;50.966;5.284;2022-10-31T03:29:20;39.80;;;20.33;;
37459;SDS011;23318;50.966;5.284;2022-10-31T03:34:27;42.17;;;20.77;;
37459;SDS011;23318;50.966;5.284;2022-10-31T03:36:55;40.08;;;20.85;;
37459;SDS011;23318;50.966;5.284;2022-10-31T03:39:23;34.38;;;19.23;;
37459;SDS011;23318;50.966;5.284;2022-10-31T03:41:53;35.90;;;18.42;;
37459;SDS011;23318;50.966;5.284;2022-10-31T03:44:22;37.28;;;19.90;;
37459;SDS011;23318;50.966;5.284;2022-10-31T03:46:51;36.40;;;18.27;;
37459;SDS011;23318;50.966;5.284;2022-10-31T03:49:16;40.30;;;19.88;;
37459;SDS011;23318;50.966;5.284;2022-10-31T03:51:55;37.50;;;19.05;;
37459;SDS011;23318;50.966;5.284;2022-10-31T03:57:14;30.08;;;17.10;;
37459;SDS011;23318;50.966;5.284;2022-10-31T04:00:08;34.38;;;17.38;;
37459;SDS011;23318;50.966;5.284;2022-10-31T04:02:38;38.22;;;19.23;;
37459;SDS011;23318;50.966;5.284;2022-10-31T04:05:06;32.42;;;18.40;;
37459;SDS011;23318;50.966;5.284;2022-10-31T04:07:36;33.17;;;17.08;;
37459;SDS011;23318;50.966;5.284;2022-10-31T04:10:07;27.63;;;17.67;;
37459;SDS011;23318;50.966;5.284;2022-10-31T04:12:36;27.65;;;16.85;;
37459;SDS011;23318;50.966;5.284;2022-10-31T04:15:03;29.60;;;16.17;;
37459;SDS011;23318;50.966;5.284;2022-10-31T04:17:33;34.58;;;16.52;;
37459;SDS011;23318;50.966;5.284;2022-10-31T04:20:02;28.33;;;16.73;;
37459;SDS011;23318;50.966;5.284;2022-10-31T04:22:29;28.80;;;16.02;;
37459;SDS011;23318;50.966;5.284;2022-10-31T04:24:54;30.23;;;16.88;;
37459;SDS011;23318;50.966;5.284;2022-10-31T04:27:20;31.50;;;15.40;;
37459;SDS011;23318;50.966;5.284;2022-10-31T04:29:45;31.60;;;16.60;;
37459;SDS011;23318;50.966;5.284;2022-10-31T04:32:11;25.65;;;16.23;;
37459;SDS011;23318;50.966;5.284;2022-10-31T04:34:37;33.40;;;16.63;;
37459;SDS011;23318;50.966;5.284;2022-10-31T04:37:02;34.38;;;17.15;;
37459;SDS011;23318;50.966;5.284;2022-10-31T04:39:28;33.20;;;18.73;;
37459;SDS011;23318;50.966;5.284;2022-10-31T04:41:54;38.60;;;18.45;;
37459;SDS011;23318;50.966;5.284;2022-10-31T04:44:19;30.27;;;17.55;;
37459;SDS011;23318;50.966;5.284;2022-10-31T04:46:45;33.42;;;17.30;;
37459;SDS011;23318;50.966;5.284;2022-10-31T04:49:10;34.42;;;16.52;;
37459;SDS011;23318;50.966;5.284;2022-10-31T04:51:36;30.23;;;17.83;;
37459;SDS011;23318;50.966;5.284;2022-10-31T04:54:02;33.50;;;17.08;;
37459;SDS011;23318;50.966;5.284;2022-10-31T04:56:28;36.55;;;18.40;;
37459;SDS011;23318;50.966;5.284;2022-10-31T04:58:53;33.30;;;18.40;;
37459;SDS011;23318;50.966;5.284;2022-10-31T05:01:19;31.52;;;18.38;;
37459;SDS011;23318;50.966;5.284;2022-10-31T05:03:45;28.83;;;17.15;;
37459;SDS011;23318;50.966;5.284;2022-10-31T05:06:10;32.67;;;18.40;;
37459;SDS011;23318;50.966;5.284;2022-10-31T05:08:36;32.67;;;20.63;;
37459;SDS011;23318;50.966;5.284;2022-10-31T05:11:02;38.67;;;21.27;;
37459;SDS011;23318;50.966;5.284;2022-10-31T05:13:28;36.45;;;19.92;;
37459;SDS011;23318;50.966;5.284;2022-10-31T05:15:55;33.50;;;18.70;;
37459;SDS011;23318;50.966;5.284;2022-10-31T05:18:20;31.13;;;17.65;;
37459;SDS011;23318;50.966;5.284;2022-10-31T05:20:46;33.17;;;17.92;;
37459;SDS011;23318;50.966;5.284;2022-10-31T05:23:12;27.95;;;17.23;;
37459;SDS011;23318;50.966;5.284;2022-10-31T05:25:39;30.15;;;16.60;;
37459;SDS011;23318;50.966;5.284;2022-10-31T05:28:05;28.35;;;16.50;;
37459;SDS011;23318;50.966;5.284;2022-10-31T05:30:31;37.83;;;18.02;;
37459;SDS011;23318;50.966;5.284;2022-10-31T05:32:58;27.92;;;15.90;;
37459;SDS011;23318;50.966;5.284;2022-10-31T05:35:25;29.52;;;16.65;;
37459;SDS011;23318;50.966;5.284;2022-10-31T05:37:53;32.17;;;16.90;;
37459;SDS011;23318;50.966;5.284;2022-10-31T05:40:19;36.97;;;17.08;;
37459;SDS011;23318;50.966;5.284;2022-10-31T05:42:45;32.85;;;17.27;;
37459;SDS011;23318;50.966;5.284;2022-10-31T05:45:13;30.73;;;17.15;;
37459;SDS011;23318;50.966;5.284;2022-10-31T05:47:40;36.47;;;18.25;;
37459;SDS011;23318;50.966;5.284;2022-10-31T05:50:06;36.28;;;18.45;;
37459;SDS011;23318;50.966;5.284;2022-10-31T05:52:33;35.72;;;18.77;;
37459;SDS011;23318;50.966;5.284;2022-10-31T05:54:59;27.30;;;18.30;;
37459;SDS011;23318;50.966;5.284;2022-10-31T05:57:25;37.40;;;18.90;;
37459;SDS011;23318;50.966;5.284;2022-10-31T05:59:50;34.13;;;18.90;;
37459;SDS011;23318;50.966;5.284;2022-10-31T06:02:19;35.60;;;17.95;;
37459;SDS011;23318;50.966;5.284;2022-10-31T06:04:45;36.38;;;18.83;;
37459;SDS011;23318;50.966;5.284;2022-10-31T06:07:11;34.75;;;18.50;;
37459;SDS011;23318;50.966;5.284;2022-10-31T06:09:37;31.80;;;17.58;;
37459;SDS011;23318;50.966;5.284;2022-10-31T06:12:02;35.53;;;17.92;;
37459;SDS011;23318;50.966;5.284;2022-10-31T06:14:28;31.27;;;19.08;;
37459;SDS011;23318;50.966;5.284;2022-10-31T06:16:54;36.75;;;20.52;;
37459;SDS011;23318;50.966;5.284;2022-10-31T06:19:20;36.72;;;18.90;;
37459;SDS011;23318;50.966;5.284;2022-10-31T06:21:46;36.08;;;18.92;;
37459;SDS011;23318;50.966;5.284;2022-10-31T06:24:11;35.80;;;18.88;;
37459;SDS011;23318;50.966;5.284;2022-10-31T06:26:37;42.00;;;18.80;;
37459;SDS011;23318;50.966;5.284;2022-10-31T06:29:03;41.85;;;20.60;;
37459;SDS011;23318;50.966;5.284;2022-10-31T06:31:28;43.22;;;21.05;;
37459;SDS011;23318;50.966;5.284;2022-10-31T06:33:54;37.20;;;19.95;;
37459;SDS011;23318;50.966;5.284;2022-10-31T06:36:20;42.15;;;21.02;;
37459;SDS011;23318;50.966;5.284;2022-10-31T06:38:45;39.60;;;21.27;;
37459;SDS011;23318;50.966;5.284;2022-10-31T06:41:11;46.60;;;21.67;;
37459;SDS011;23318;50.966;5.284;2022-10-31T06:43:36;40.08;;;19.63;;
37459;SDS011;23318;50.966;5.284;2022-10-31T06:46:02;42.85;;;20.63;;
37459;SDS011;23318;50.966;5.284;2022-10-31T06:48:29;33.63;;;18.35;;
37459;SDS011;23318;50.966;5.284;2022-10-31T06:51:01;31.90;;;18.70;;
37459;SDS011;23318;50.966;5.284;2022-10-31T06:53:27;35.45;;;18.58;;
37459;SDS011;23318;50.966;5.284;2022-10-31T06:55:56;30.50;;;18.20;;
37459;SDS011;23318;50.966;5.284;2022-10-31T06:58:22;35.63;;;19.95;;
37459;SDS011;23318;50.966;5.284;2022-10-31T07:00:48;36.42;;;19.70;;
37459;SDS011;23318;50.966;5.284;2022-10-31T07:03:14;38.03;;;19.65;;
37459;SDS011;23318;50.966;5.284;2022-10-31T07:05:41;36.65;;;20.52;;
37459;SDS011;23318;50.966;5.284;2022-10-31T07:08:08;44.10;;;22.08;;
37459;SDS011;23318;50.966;5.284;2022-10-31T07:10:38;38.85;;;18.58;;
37459;SDS011;23318;50.966;5.284;2022-10-31T07:13:05;36.42;;;18.38;;
37459;SDS011;23318;50.966;5.284;2022-10-31T07:15:35;31.80;;;17.40;;
37459;SDS011;23318;50.966;5.284;2022-10-31T07:18:02;32.10;;;17.00;;
37459;SDS011;23318;50.966;5.284;2022-10-31T07:20:30;33.70;;;16.65;;
37459;SDS011;23318;50.966;5.284;2022-10-31T07:22:56;33.17;;;16.95;;
37459;SDS011;23318;50.966;5.284;2022-10-31T07:25:22;26.55;;;15.13;;
37459;SDS011;23318;50.966;5.284;2022-10-31T07:27:48;25.38;;;15.02;;
37459;SDS011;23318;50.966;5.284;2022-10-31T07:30:14;30.17;;;16.10;;
37459;SDS011;23318;50.966;5.284;2022-10-31T07:32:43;23.48;;;16.42;;
37459;SDS011;23318;50.966;5.284;2022-10-31T07:35:11;28.95;;;16.17;;
37459;SDS011;23318;50.966;5.284;2022-10-31T07:37:38;32.67;;;17.85;;
37459;SDS011;23318;50.966;5.284;2022-10-31T07:40:08;34.05;;;18.45;;
37459;SDS011;23318;50.966;5.284;2022-10-31T07:42:37;26.55;;;16.23;;
37459;SDS011;23318;50.966;5.284;2022-10-31T07:45:04;38.70;;;20.75;;
37459;SDS011;23318;50.966;5.284;2022-10-31T07:47:48;44.78;;;23.13;;
37459;SDS011;23318;50.966;5.284;2022-10-31T07:50:25;40.77;;;21.17;;
37459;SDS011;23318;50.966;5.284;2022-10-31T07:52:58;46.53;;;22.52;;
37459;SDS011;23318;50.966;5.284;2022-10-31T07:55:50;39.50;;;21.48;;
37459;SDS011;23318;50.966;5.284;2022-10-31T07:58:16;49.75;;;21.40;;
37459;SDS011;23318;50.966;5.284;2022-10-31T08:00:43;35.50;;;21.35;;
37459;SDS011;23318;50.966;5.284;2022-10-31T08:03:10;46.22;;;20.83;;
37459;SDS011;23318;50.966;5.284;2022-10-31T08:05:37;41.03;;;21.42;;
37459;SDS011;23318;50.966;5.284;2022-10-31T08:08:05;48.58;;;22.30;;
37459;SDS011;23318;50.966;5.284;2022-10-31T08:10:31;45.83;;;23.85;;
37459;SDS011;23318;50.966;5.284;2022-10-31T08:13:02;42.95;;;25.65;;
37459;SDS011;23318;50.966;5.284;2022-10-31T08:15:28;48.67;;;25.50;;
37459;SDS011;23318;50.966;5.284;2022-10-31T08:17:54;46.70;;;23.42;;
37459;SDS011;23318;50.966;5.284;2022-10-31T08:20:20;49.95;;;23.10;;
37459;SDS011;23318;50.966;5.284;2022-10-31T08:22:56;44.63;;;23.35;;
37459;SDS011;23318;50.966;5.284;2022-10-31T08:25:29;42.03;;;23.10;;
37459;SDS011;23318;50.966;5.284;2022-10-31T08:27:56;38.58;;;21.92;;
37459;SDS011;23318;50.966;5.284;2022-10-31T08:30:23;39.60;;;23.48;;
37459;SDS011;23318;50.966;5.284;2022-10-31T08:35:46;48.92;;;22.55;;
37459;SDS011;23318;50.966;5.284;2022-10-31T08:38:12;40.60;;;20.75;;
37459;SDS011;23318;50.966;5.284;2022-10-31T08:40:39;32.25;;;21.02;;
37459;SDS011;23318;50.966;5.284;2022-10-31T08:43:05;34.30;;;21.52;;
37459;SDS011;23318;50.966;5.284;2022-10-31T08:45:38;44.05;;;21.92;;
37459;SDS011;23318;50.966;5.284;2022-10-31T08:48:05;42.22;;;23.27;;
37459;SDS011;23318;50.966;5.284;2022-10-31T08:50:33;39.92;;;21.20;;
37459;SDS011;23318;50.966;5.284;2022-10-31T08:53:00;41.55;;;21.38;;
37459;SDS011;23318;50.966;5.284;2022-10-31T08:55:30;46.75;;;20.67;;
37459;SDS011;23318;50.966;5.284;2022-10-31T08:57:57;47.50;;;21.80;;
37459;SDS011;23318;50.966;5.284;2022-10-31T09:00:23;44.05;;;20.63;;
37459;SDS011;23318;50.966;5.284;2022-10-31T09:02:59;44.33;;;21.48;;
37459;SDS011;23318;50.966;5.284;2022-10-31T09:05:27;38.60;;;20.98;;
37459;SDS011;23318;50.966;5.284;2022-10-31T09:07:57;35.70;;;21.05;;
37459;SDS011;23318;50.966;5.284;2022-10-31T09:10:24;43.67;;;22.08;;
37459;SDS011;23318;50.966;5.284;2022-10-31T09:12:54;43.05;;;20.83;;
37459;SDS011;23318;50.966;5.284;2022-10-31T09:15:21;38.63;;;20.77;;
37459;SDS011;23318;50.966;5.284;2022-10-31T09:17:47;39.03;;;21.90;;
37459;SDS011;23318;50.966;5.284;2022-10-31T09:20:13;39.63;;;21.48;;
37459;SDS011;23318;50.966;5.284;2022-10-31T09:22:39;46.15;;;23.33;;
37459;SDS011;23318;50.966;5.284;2022-10-31T09:25:05;40.40;;;22.45;;
37459;SDS011;23318;50.966;5.284;2022-10-31T09:27:30;44.10;;;22.95;;
37459;SDS011;23318;50.966;5.284;2022-10-31T09:29:56;41.72;;;22.67;;
37459;SDS011;23318;50.966;5.284;2022-10-31T09:32:22;45.25;;;24.17;;
37459;SDS011;23318;50.966;5.284;2022-10-31T09:34:47;38.70;;;23.48;;
37459;SDS011;23318;50.966;5.284;2022-10-31T09:37:13;44.20;;;25.23;;
37459;SDS011;23318;50.966;5.284;2022-10-31T09:39:38;41.15;;;25.45;;
37459;SDS011;23318;50.966;5.284;2022-10-31T09:42:23;56.33;;;25.75;;
37459;SDS011;23318;50.966;5.284;2022-10-31T09:53:44;45.30;;;24.13;;
37459;SDS011;23318;50.966;5.284;2022-10-31T09:56:18;40.40;;;22.92;;
37459;SDS011;23318;50.966;5.284;2022-10-31T09:58:46;36.60;;;23.45;;
37459;SDS011;23318;50.966;5.284;2022-10-31T10:01:27;46.85;;;25.10;;
37459;SDS011;23318;50.966;5.284;2022-10-31T10:06:53;49.53;;;23.85;;
37459;SDS011;23318;50.966;5.284;2022-10-31T10:09:20;41.28;;;22.90;;
37459;SDS011;23318;50.966;5.284;2022-10-31T10:11:53;43.80;;;24.52;;
37459;SDS011;23318;50.966;5.284;2022-10-31T10:14:50;48.90;;;25.33;;
37459;SDS011;23318;50.966;5.284;2022-10-31T10:25:28;47.72;;;24.27;;
37459;SDS011;23318;50.966;5.284;2022-10-31T10:28:05;41.50;;;21.27;;
37459;SDS011;23318;50.966;5.284;2022-10-31T10:30:53;42.05;;;22.10;;
37459;SDS011;23318;50.966;5.284;2022-10-31T10:33:33;37.72;;;21.23;;
37459;SDS011;23318;50.966;5.284;2022-10-31T10:36:56;35.25;;;19.65;;
37459;SDS011;23318;50.966;5.284;2022-10-31T10:41:38;36.35;;;20.83;;
37459;SDS011;23318;50.966;5.284;2022-10-31T10:44:09;45.90;;;20.48;;
37459;SDS011;23318;50.966;5.284;2022-10-31T10:46:43;43.00;;;20.58;;
37459;SDS011;23318;50.966;5.284;2022-10-31T10:55:22;36.97;;;18.33;;
37459;SDS011;23318;50.966;5.284;2022-10-31T10:58:00;43.40;;;17.27;;
37459;SDS011;23318;50.966;5.284;2022-10-31T11:00:35;37.63;;;17.20;;
37459;SDS011;23318;50.966;5.284;2022-10-31T11:03:09;33.83;;;17.20;;
37459;SDS011;23318;50.966;5.284;2022-10-31T11:05:37;31.98;;;16.88;;
37459;SDS011;23318;50.966;5.284;2022-10-31T11:11:01;31.90;;;15.98;;
37459;SDS011;23318;50.966;5.284;2022-10-31T11:13:50;27.55;;;15.50;;
37459;SDS011;23318;50.966;5.284;2022-10-31T11:21:34;26.83;;;12.35;;
37459;SDS011;23318;50.966;5.284;2022-10-31T11:26:35;23.10;;;13.07;;
37459;SDS011;23318;50.966;5.284;2022-10-31T11:29:03;23.85;;;13.27;;
37459;SDS011;23318;50.966;5.284;2022-10-31T11:31:30;30.67;;;12.60;;
37459;SDS011;23318;50.966;5.284;2022-10-31T11:34:00;25.35;;;12.48;;
37459;SDS011;23318;50.966;5.284;2022-10-31T11:36:41;33.53;;;12.40;;
37459;SDS011;23318;50.966;5.284;2022-10-31T11:39:16;20.15;;;10.65;;
37459;SDS011;23318;50.966;5.284;2022-10-31T11:41:45;26.45;;;10.15;;
37459;SDS011;23318;50.966;5.284;2022-10-31T11:46:58;32.17;;;10.82;;
37459;SDS011;23318;50.966;5.284;2022-10-31T11:49:33;21.48;;;9.25;;
37459;SDS011;23318;50.966;5.284;2022-10-31T11:52:27;22.58;;;10.18;;
37459;SDS011;23318;50.966;5.284;2022-10-31T11:55:13;23.50;;;10.10;;
37459;SDS011;23318;50.966;5.284;2022-10-31T11:57:43;27.30;;;10.48;;
37459;SDS011;23318;50.966;5.284;2022-10-31T12:00:47;23.15;;;10.10;;
37459;SDS011;23318;50.966;5.284;2022-10-31T12:03:04;20.17;;;9.18;;
37459;SDS011;23318;50.966;5.284;2022-10-31T12:08:33;18.85;;;9.40;;
37459;SDS011;23318;50.966;5.284;2022-10-31T12:11:10;18.50;;;9.77;;
37459;SDS011;23318;50.966;5.284;2022-10-31T12:27:54;22.40;;;9.43;;
37459;SDS011;23318;50.966;5.284;2022-10-31T12:33:32;20.92;;;8.95;;
37459;SDS011;23318;50.966;5.284;2022-10-31T12:44:27;25.02;;;8.95;;
37459;SDS011;23318;50.966;5.284;2022-10-31T12:55:42;17.98;;;8.43;;
37459;SDS011;23318;50.966;5.284;2022-10-31T12:58:29;19.75;;;8.85;;
37459;SDS011;23318;50.966;5.284;2022-10-31T13:01:12;22.77;;;9.00;;
37459;SDS011;23318;50.966;5.284;2022-10-31T13:06:19;20.40;;;8.43;;
37459;SDS011;23318;50.966;5.284;2022-10-31T13:08:52;18.30;;;8.15;;
37459;SDS011;23318;50.966;5.284;2022-10-31T13:11:23;17.48;;;8.07;;
37459;SDS011;23318;50.966;5.284;2022-10-31T13:16:40;16.48;;;7.70;;
37459;SDS011;23318;50.966;5.284;2022-10-31T13:27:29;22.52;;;9.93;;
37459;SDS011;23318;50.966;5.284;2022-10-31T13:32:55;19.80;;;8.68;;
37459;SDS011;23318;50.966;5.284;2022-10-31T13:35:33;13.02;;;8.25;;
37459;SDS011;23318;50.966;5.284;2022-10-31T13:41:01;18.33;;;9.75;;
37459;SDS011;23318;50.966;5.284;2022-10-31T13:43:51;20.08;;;9.88;;
37459;SDS011;23318;50.966;5.284;2022-10-31T13:46:37;18.38;;;9.68;;
37459;SDS011;23318;50.966;5.284;2022-10-31T13:49:21;24.83;;;10.07;;
37459;SDS011;23318;50.966;5.284;2022-10-31T13:51:48;22.38;;;9.48;;
37459;SDS011;23318;50.966;5.284;2022-10-31T13:56:48;22.73;;;10.23;;
37459;SDS011;23318;50.966;5.284;2022-10-31T13:59:22;25.77;;;11.55;;
37459;SDS011;23318;50.966;5.284;2022-10-31T14:01:56;22.27;;;10.70;;
37459;SDS011;23318;50.966;5.284;2022-10-31T14:04:28;27.63;;;10.95;;
37459;SDS011;23318;50.966;5.284;2022-10-31T14:07:13;23.63;;;10.43;;
37459;SDS011;23318;50.966;5.284;2022-10-31T14:09:52;23.02;;;10.48;;
37459;SDS011;23318;50.966;5.284;2022-10-31T14:12:37;22.50;;;11.57;;
37459;SDS011;23318;50.966;5.284;2022-10-31T14:20:24;23.42;;;10.55;;
37459;SDS011;23318;50.966;5.284;2022-10-31T14:23:10;17.50;;;9.13;;
37459;SDS011;23318;50.966;5.284;2022-10-31T14:25:37;26.48;;;9.40;;
37459;SDS011;23318;50.966;5.284;2022-10-31T14:28:20;20.52;;;9.63;;
37459;SDS011;23318;50.966;5.284;2022-10-31T14:30:51;21.27;;;9.68;;
37459;SDS011;23318;50.966;5.284;2022-10-31T14:33:22;22.35;;;9.73;;
37459;SDS011;23318;50.966;5.284;2022-10-31T14:46:51;21.52;;;9.50;;
37459;SDS011;23318;50.966;5.284;2022-10-31T14:51:57;29.15;;;9.85;;
37459;SDS011;23318;50.966;5.284;2022-10-31T14:54:28;31.80;;;10.35;;
37459;SDS011;23318;50.966;5.284;2022-10-31T14:57:05;25.45;;;8.80;;
37459;SDS011;23318;50.966;5.284;2022-10-31T14:59:38;19.85;;;8.98;;
37459;SDS011;23318;50.966;5.284;2022-10-31T15:04:37;26.48;;;9.40;;
37459;SDS011;23318;50.966;5.284;2022-10-31T15:07:09;23.60;;;9.13;;
37459;SDS011;23318;50.966;5.284;2022-10-31T15:09:54;19.40;;;8.40;;
37459;SDS011;23318;50.966;5.284;2022-10-31T15:14:48;18.98;;;9.45;;
37459;SDS011;23318;50.966;5.284;2022-10-31T15:17:14;23.15;;;8.48;;
37459;SDS011;23318;50.966;5.284;2022-10-31T15:19:41;21.38;;;9.10;;
37459;SDS011;23318;50.966;5.284;2022-10-31T15:22:09;20.60;;;9.40;;
37459;SDS011;23318;50.966;5.284;2022-10-31T15:24:40;22.05;;;9.23;;
37459;SDS011;23318;50.966;5.284;2022-10-31T15:27:10;26.92;;;8.13;;
37459;SDS011;23318;50.966;5.284;2022-10-31T15:29:47;20.25;;;8.02;;
37459;SDS011;23318;50.966;5.284;2022-10-31T15:32:23;26.30;;;8.95;;
37459;SDS011;23318;50.966;5.284;2022-10-31T15:34:50;24.63;;;8.45;;
37459;SDS011;23318;50.966;5.284;2022-10-31T15:37:18;23.35;;;9.18;;
37459;SDS011;23318;50.966;5.284;2022-10-31T15:39:45;24.75;;;8.20;;
37459;SDS011;23318;50.966;5.284;2022-10-31T15:42:32;21.80;;;8.73;;
37459;SDS011;23318;50.966;5.284;2022-10-31T15:45:05;21.88;;;9.20;;
37459;SDS011;23318;50.966;5.284;2022-10-31T15:47:48;21.52;;;8.95;;
37459;SDS011;23318;50.966;5.284;2022-10-31T15:50:21;21.17;;;8.98;;
37459;SDS011;23318;50.966;5.284;2022-10-31T15:52:56;18.65;;;8.52;;
37459;SDS011;23318;50.966;5.284;2022-10-31T15:55:26;20.67;;;8.27;;
37459;SDS011;23318;50.966;5.284;2022-10-31T15:57:58;21.55;;;8.52;;
37459;SDS011;23318;50.966;5.284;2022-10-31T16:03:20;22.13;;;7.93;;
37459;SDS011;23318;50.966;5.284;2022-10-31T16:05:51;20.10;;;8.23;;
37459;SDS011;23318;50.966;5.284;2022-10-31T16:10:56;20.02;;;8.18;;
37459;SDS011;23318;50.966;5.284;2022-10-31T16:13:26;21.90;;;7.82;;
37459;SDS011;23318;50.966;5.284;2022-10-31T16:15:59;17.63;;;8.13;;
37459;SDS011;23318;50.966;5.284;2022-10-31T16:18:27;14.90;;;7.68;;
37459;SDS011;23318;50.966;5.284;2022-10-31T16:20:56;12.02;;;6.95;;
37459;SDS011;23318;50.966;5.284;2022-10-31T16:23:23;18.35;;;7.05;;
37459;SDS011;23318;50.966;5.284;2022-10-31T16:25:52;19.42;;;7.28;;
37459;SDS011;23318;50.966;5.284;2022-10-31T16:28:26;18.30;;;5.47;;
37459;SDS011;23318;50.966;5.284;2022-10-31T16:30:55;19.05;;;5.15;;
37459;SDS011;23318;50.966;5.284;2022-10-31T16:33:24;15.05;;;4.75;;
37459;SDS011;23318;50.966;5.284;2022-10-31T16:36:27;15.60;;;4.90;;
37459;SDS011;23318;50.966;5.284;2022-10-31T16:38:55;8.93;;;3.95;;
37459;SDS011;23318;50.966;5.284;2022-10-31T16:41:21;12.02;;;4.15;;
37459;SDS011;23318;50.966;5.284;2022-10-31T16:43:48;14.65;;;3.92;;
37459;SDS011;23318;50.966;5.284;2022-10-31T16:46:21;11.38;;;3.83;;
37459;SDS011;23318;50.966;5.284;2022-10-31T16:48:48;12.93;;;4.47;;
37459;SDS011;23318;50.966;5.284;2022-10-31T16:51:14;15.85;;;4.22;;
37459;SDS011;23318;50.966;5.284;2022-10-31T16:53:39;14.98;;;3.60;;
37459;SDS011;23318;50.966;5.284;2022-10-31T16:56:05;11.93;;;3.80;;
37459;SDS011;23318;50.966;5.284;2022-10-31T16:58:42;9.30;;;3.72;;
37459;SDS011;23318;50.966;5.284;2022-10-31T17:01:09;12.00;;;3.55;;
37459;SDS011;23318;50.966;5.284;2022-10-31T17:03:36;10.55;;;3.90;;
37459;SDS011;23318;50.966;5.284;2022-10-31T17:06:04;11.50;;;3.97;;
37459;SDS011;23318;50.966;5.284;2022-10-31T17:08:30;15.68;;;3.75;;
37459;SDS011;23318;50.966;5.284;2022-10-31T17:10:56;19.67;;;4.60;;
37459;SDS011;23318;50.966;5.284;2022-10-31T17:13:26;13.80;;;3.25;;
37459;SDS011;23318;50.966;5.284;2022-10-31T17:15:55;13.52;;;3.92;;
37459;SDS011;23318;50.966;5.284;2022-10-31T17:18:23;14.57;;;3.50;;
37459;SDS011;23318;50.966;5.284;2022-10-31T17:20:49;10.57;;;3.60;;
37459;SDS011;23318;50.966;5.284;2022-10-31T17:23:19;12.25;;;3.78;;
37459;SDS011;23318;50.966;5.284;2022-10-31T17:25:45;14.02;;;3.55;;
37459;SDS011;23318;50.966;5.284;2022-10-31T17:28:14;10.02;;;4.13;;
37459;SDS011;23318;50.966;5.284;2022-10-31T17:30:40;14.13;;;3.55;;
37459;SDS011;23318;50.966;5.284;2022-10-31T17:33:09;11.10;;;3.70;;
37459;SDS011;23318;50.966;5.284;2022-10-31T17:35:39;14.90;;;3.67;;
37459;SDS011;23318;50.966;5.284;2022-10-31T17:38:11;12.25;;;4.20;;